Pernitas Point, Texas
Current Conditions -  °F | °C
As of 1:56 PM on Sunday 21 Dec 2014 (Local Time) from KNOG Reporting Station
Overcast Overcast  
Wind Chill: 60°   Ceiling: 1200
Heat Index: 60°   Visibility: 10mi
Dew Point: 54°   Wind: 0mph
Humidity: 80%   Direction: NA
Pressure: 29.99"   Gusts: NA
Location:  28.0605°N, 97.9438°W
Report Text: KNOG 211956Z AUTO 00000KT 10SM OVC012 16/12 A2999 RMK AO2 SLP137 T01560122 $
Loading
Personal Weather Stations






























Interactive Weather Map New forecast layout! Learn more

10-Day Weather Forecast

Advertisements
Track Severe Weather on mobile